Belorechensk, Russia
Current Conditions -  °F | °C
As of 2:00 PM on Sunday 21 Dec 2014 (Local Time) from URKK Reporting Station
Broken Clouds Broken Clouds  
Wind Chill: 52°   Ceiling: 10000
Heat Index: 52°   Visibility: 6mi
Dew Point: 45°   Wind: 20mph
Humidity: 76%   Direction: 200°SSW
Pressure: 29.91"   Gusts: NA
Location:  44.77°N, 39.87°E
Report Text: URKK 211100Z 20009MPS 9999 SCT030 BKN100 11/07 Q1013 NOSIG RMKQFE756 SC060
Loading
Personal Weather Stations






























Interactive Weather Map New forecast layout! Learn more

10-Day Weather Forecast

Advertisements
Track Severe Weather on mobile